Time,TemperatureF,DewpointF,PressureIn,WindDirection,WindDirectionDegrees,WindSpeedMPH,WindSpeedGustMPH,Humidity,HourlyPrecipIn,Conditions,Clouds,dailyrainin,SoftwareType,DateUTC
2014-08-29 00:00:00,76.6,70.7,29.94,West,271,0.0,0.0,82,0.00,,,1.37,Wunderground PWS Mod,2014-08-29 04:00:00,
2014-08-29 00:05:00,76.7,70.8,29.94,West,271,0.0,0.0,82,0.00,,,1.37,Wunderground PWS Mod,2014-08-29 04:05:00,
2014-08-29 00:10:00,76.7,70.8,29.94,West,271,0.0,0.0,82,0.00,,,1.37,Wunderground PWS Mod,2014-08-29 04:10:00,
2014-08-29 00:15:00,76.6,70.7,29.93,West,271,0.0,0.0,82,0.00,,,1.37,Wunderground PWS Mod,2014-08-29 04:15:00,
2014-08-29 00:25:00,76.3,70.4,29.93,West,271,0.0,0.0,82,0.00,,,1.37,Wunderground PWS Mod,2014-08-29 04:25:00,
2014-08-29 00:30:00,76.1,70.2,29.93,West,271,0.0,0.0,82,0.00,,,1.37,Wunderground PWS Mod,2014-08-29 04:30:00,
2014-08-29 00:35:00,76.3,70.8,29.93,West,271,0.0,0.0,83,0.00,,,1.37,Wunderground PWS Mod,2014-08-29 04:35:00,
2014-08-29 00:40:00,76.5,70.9,29.93,West,271,0.0,0.0,83,0.00,,,1.37,Wunderground PWS Mod,2014-08-29 04:40:00,
2014-08-29 00:45:00,76.6,70.7,29.93,West,271,0.0,0.0,82,0.00,,,1.37,Wunderground PWS Mod,2014-08-29 04:45:00,
2014-08-29 00:50:00,76.7,70.8,29.93,West,271,0.0,0.0,82,0.00,,,1.37,Wunderground PWS Mod,2014-08-29 04:50:00,
2014-08-29 01:00:00,76.8,71.2,29.92,West,271,0.0,0.0,83,0.00,,,1.37,Wunderground PWS Mod,2014-08-29 05:00:00,
2014-08-29 01:05:00,76.8,71.2,29.92,West,271,0.0,0.0,83,0.00,,,1.37,Wunderground PWS Mod,2014-08-29 05:05:00,
2014-08-29 01:15:00,76.7,71.1,29.92,West,271,0.0,0.0,83,0.00,,,1.37,Wunderground PWS Mod,2014-08-29 05:15:00,
2014-08-29 01:20:00,76.7,71.1,29.92,West,271,0.0,0.0,83,0.00,,,1.37,Wunderground PWS Mod,2014-08-29 05:20:00,
2014-08-29 01:25:00,76.7,71.5,29.92,West,271,0.0,0.0,84,0.00,,,1.37,Wunderground PWS Mod,2014-08-29 05:25:00,
2014-08-29 01:35:00,76.6,71.4,29.91,West,271,0.0,0.0,84,0.00,,,1.37,Wunderground PWS Mod,2014-08-29 05:35:00,
2014-08-29 01:45:00,76.6,71.4,29.91,West,271,0.0,0.0,84,0.00,,,1.37,Wunderground PWS Mod,2014-08-29 05:45:00,
2014-08-29 01:50:00,76.6,71.4,29.91,West,271,0.0,0.0,84,0.00,,,1.37,Wunderground PWS Mod,2014-08-29 05:50:00,
2014-08-29 02:00:00,76.7,71.8,29.91,West,271,0.0,0.0,85,0.00,,,1.37,Wunderground PWS Mod,2014-08-29 06:00:00,
2014-08-29 02:05:00,76.7,71.8,29.91,West,271,0.0,0.0,85,0.00,,,1.37,Wunderground PWS Mod,2014-08-29 06:05:00,
2014-08-29 02:15:00,76.6,71.7,29.91,West,271,0.0,0.0,85,0.00,,,1.37,Wunderground PWS Mod,2014-08-29 06:15:00,
2014-08-29 02:20:00,76.6,71.7,29.91,West,271,0.0,0.0,85,0.00,,,1.37,Wunderground PWS Mod,2014-08-29 06:20:00,
2014-08-29 02:30:00,76.5,71.7,29.91,West,271,0.0,0.0,85,0.00,,,1.37,Wunderground PWS Mod,2014-08-29 06:30:00,
2014-08-29 02:35:00,76.5,71.7,29.91,West,271,0.0,0.0,85,0.00,,,1.37,Wunderground PWS Mod,2014-08-29 06:35:00,
2014-08-29 02:45:00,76.6,72.1,29.91,West,271,0.0,0.0,86,0.00,,,0.00,Wunderground PWS Mod,2014-08-29 06:45:00,
2014-08-29 02:55:00,76.8,72.3,29.91,West,271,0.0,0.0,86,0.00,,,0.00,Wunderground PWS Mod,2014-08-29 06:55:00,
2014-08-29 03:00:00,76.9,72.4,29.90,West,271,0.0,0.0,86,0.00,,,0.00,Wunderground PWS Mod,2014-08-29 07:00:00,
2014-08-29 03:05:00,76.9,72.4,29.90,West,271,0.0,0.0,86,0.00,,,0.00,Wunderground PWS Mod,2014-08-29 07:05:00,
2014-08-29 03:15:00,76.8,72.3,29.89,West,271,0.0,0.0,86,0.00,,,0.00,Wunderground PWS Mod,2014-08-29 07:15:00,
2014-08-29 03:20:00,76.7,72.2,29.89,West,271,0.0,0.0,86,0.00,,,0.00,Wunderground PWS Mod,2014-08-29 07:20:00,
2014-08-29 03:30:00,76.8,72.6,29.90,West,271,0.0,0.0,87,0.00,,,0.00,Wunderground PWS Mod,2014-08-29 07:30:00,
2014-08-29 03:35:00,76.9,72.7,29.90,West,271,0.0,0.0,87,0.00,,,0.00,Wunderground PWS Mod,2014-08-29 07:35:00,
2014-08-29 03:45:00,76.8,72.6,29.90,West,271,0.0,0.0,87,0.00,,,0.00,Wunderground PWS Mod,2014-08-29 07:45:00,
2014-08-29 03:50:00,76.8,72.6,29.90,West,271,0.0,0.0,87,0.00,,,0.00,Wunderground PWS Mod,2014-08-29 07:50:00,
2014-08-29 04:00:00,76.9,72.7,29.90,West,271,0.0,0.0,87,0.00,,,0.00,Wunderground PWS Mod,2014-08-29 08:00:00,
2014-08-29 04:10:00,76.9,72.7,29.90,West,271,0.0,0.0,87,0.00,,,0.00,Wunderground PWS Mod,2014-08-29 08:10:00,
2014-08-29 04:15:00,77.0,72.8,29.90,West,271,0.0,0.0,87,0.00,,,0.00,Wunderground PWS Mod,2014-08-29 08:15:00,
2014-08-29 04:20:00,77.0,72.8,29.90,West,271,0.0,0.0,87,0.00,,,0.00,Wunderground PWS Mod,2014-08-29 08:20:00,
2014-08-29 04:30:00,76.9,72.7,29.91,West,271,0.0,0.0,87,0.00,,,0.00,Wunderground PWS Mod,2014-08-29 08:30:00,
2014-08-29 04:35:00,76.9,72.7,29.91,West,271,0.0,0.0,87,0.00,,,0.00,Wunderground PWS Mod,2014-08-29 08:35:00,
2014-08-29 04:45:00,76.9,73.1,29.91,West,271,0.0,0.0,88,0.00,,,0.00,Wunderground PWS Mod,2014-08-29 08:45:00,
2014-08-29 04:55:00,77.0,73.2,29.91,West,271,0.0,0.0,88,0.00,,,0.00,Wunderground PWS Mod,2014-08-29 08:55:00,
2014-08-29 05:00:00,77.0,73.2,29.91,West,271,0.0,0.0,88,0.00,,,0.00,Wunderground PWS Mod,2014-08-29 09:00:00,
2014-08-29 05:05:00,77.0,73.2,29.91,West,271,0.0,0.0,88,0.00,,,0.00,Wunderground PWS Mod,2014-08-29 09:05:00,
2014-08-29 05:15:00,77.1,73.3,29.91,West,271,0.0,0.0,88,0.00,,,0.00,Wunderground PWS Mod,2014-08-29 09:15:00,
2014-08-29 05:20:00,77.0,73.2,29.91,West,271,0.0,0.0,88,0.00,,,0.00,Wunderground PWS Mod,2014-08-29 09:20:00,
2014-08-29 05:30:00,77.0,73.2,29.92,West,271,0.0,0.0,88,0.00,,,0.00,Wunderground PWS Mod,2014-08-29 09:30:00,
2014-08-29 05:35:00,77.2,73.4,29.92,West,271,0.0,0.0,88,0.00,,,0.00,Wunderground PWS Mod,2014-08-29 09:35:00,
2014-08-29 05:45:00,77.2,73.4,29.91,West,271,0.0,0.0,88,0.00,,,0.00,Wunderground PWS Mod,2014-08-29 09:45:00,
2014-08-29 05:50:00,77.3,73.5,29.91,West,271,0.0,0.0,88,0.00,,,0.00,Wunderground PWS Mod,2014-08-29 09:50:00,
2014-08-29 05:55:00,77.3,73.5,29.91,West,271,0.0,0.0,88,0.00,,,0.00,Wunderground PWS Mod,2014-08-29 09:55:00,
2014-08-29 06:05:00,77.4,73.6,29.91,West,271,0.0,0.0,88,0.00,,,0.00,Wunderground PWS Mod,2014-08-29 10:05:00,
2014-08-29 06:10:00,77.4,73.6,29.91,West,271,0.0,0.0,88,0.00,,,0.00,Wunderground PWS Mod,2014-08-29 10:10:00,
2014-08-29 06:20:00,77.4,73.6,29.92,West,271,0.0,0.0,88,0.00,,,0.00,Wunderground PWS Mod,2014-08-29 10:20:00,
2014-08-29 06:25:00,77.4,73.6,29.92,West,271,0.0,0.0,88,0.00,,,0.00,Wunderground PWS Mod,2014-08-29 10:25:00,
2014-08-29 06:35:00,77.5,73.7,29.92,West,271,0.0,0.0,88,0.00,,,0.00,Wunderground PWS Mod,2014-08-29 10:35:00,
2014-08-29 06:45:00,77.5,73.7,29.92,West,271,0.0,0.0,88,0.00,,,0.00,Wunderground PWS Mod,2014-08-29 10:45:00,
2014-08-29 06:50:00,77.6,73.8,29.92,West,271,0.0,0.0,88,0.00,,,0.00,Wunderground PWS Mod,2014-08-29 10:50:00,
2014-08-29 06:55:00,77.6,73.8,29.92,West,271,0.0,0.0,88,0.00,,,0.00,Wunderground PWS Mod,2014-08-29 10:55:00,
2014-08-29 07:05:00,77.7,73.9,29.93,West,271,0.0,0.0,88,0.00,,,0.00,Wunderground PWS Mod,2014-08-29 11:05:00,
2014-08-29 07:15:00,77.9,74.1,29.94,West,271,0.0,0.0,88,0.00,,,0.00,Wunderground PWS Mod,2014-08-29 11:15:00,
2014-08-29 07:20:00,78.0,74.2,29.94,West,271,0.0,0.0,88,0.00,,,0.00,Wunderground PWS Mod,2014-08-29 11:20:00,
2014-08-29 07:25:00,77.9,74.1,29.94,West,271,0.0,0.0,88,0.00,,,0.00,Wunderground PWS Mod,2014-08-29 11:25:00,
2014-08-29 07:35:00,78.1,74.3,29.94,West,271,0.0,0.0,88,0.00,,,0.00,Wunderground PWS Mod,2014-08-29 11:35:00,
2014-08-29 07:40:00,78.2,74.4,29.94,West,271,0.0,0.0,88,0.00,,,0.00,Wunderground PWS Mod,2014-08-29 11:40:00,
2014-08-29 07:45:00,78.5,74.6,29.94,West,271,0.0,0.0,88,0.00,,,0.00,Wunderground PWS Mod,2014-08-29 11:45:00,
2014-08-29 07:55:00,79.0,75.1,29.94,West,271,0.0,0.0,88,0.00,,,0.00,Wunderground PWS Mod,2014-08-29 11:55:00,
2014-08-29 08:05:00,79.7,75.8,29.94,West,271,0.0,0.0,88,0.00,,,0.00,Wunderground PWS Mod,2014-08-29 12:05:00,
2014-08-29 08:15:00,80.3,76.4,29.94,West,271,0.0,0.0,88,0.00,,,0.00,Wunderground PWS Mod,2014-08-29 12:15:00,
2014-08-29 08:20:00,80.3,76.4,29.94,West,271,0.0,0.0,88,0.00,,,0.00,Wunderground PWS Mod,2014-08-29 12:20:00,
2014-08-29 08:25:00,80.6,76.4,29.94,West,271,0.0,0.0,87,0.00,,,0.00,Wunderground PWS Mod,2014-08-29 12:25:00,
2014-08-29 08:35:00,81.7,77.1,29.95,West,271,0.0,0.0,86,0.00,,,0.00,Wunderground PWS Mod,2014-08-29 12:35:00,
2014-08-29 08:45:00,82.9,77.6,29.94,West,271,0.0,0.0,84,0.00,,,0.00,Wunderground PWS Mod,2014-08-29 12:45:00,
2014-08-29 08:50:00,83.2,77.5,29.94,West,271,0.0,0.0,83,0.00,,,0.00,Wunderground PWS Mod,2014-08-29 12:50:00,
2014-08-29 08:55:00,83.6,77.9,29.94,West,271,0.0,0.0,83,0.00,,,0.00,Wunderground PWS Mod,2014-08-29 12:55:00,
2014-08-29 09:05:00,85.0,77.8,29.95,West,271,0.0,0.0,79,0.00,,,0.00,Wunderground PWS Mod,2014-08-29 13:05:00,
2014-08-29 09:15:00,85.8,78.1,29.95,West,271,0.0,0.0,78,0.00,,,0.00,Wunderground PWS Mod,2014-08-29 13:15:00,
2014-08-29 09:25:00,85.9,77.8,29.95,West,271,0.0,2.0,77,0.00,,,0.00,Wunderground PWS Mod,2014-08-29 13:25:00,
2014-08-29 09:30:00,86.4,77.9,29.96,WSW,257,1.0,7.0,76,0.00,,,0.00,Wunderground PWS Mod,2014-08-29 13:30:00,
2014-08-29 09:40:00,86.0,77.9,29.96,WSW,257,1.0,4.0,77,0.00,,,0.00,Wunderground PWS Mod,2014-08-29 13:40:00,
2014-08-29 09:45:00,85.4,77.4,29.96,SW,236,2.0,2.0,77,0.00,,,0.00,Wunderground PWS Mod,2014-08-29 13:45:00,
2014-08-29 09:55:00,85.6,77.2,29.96,ESE,122,3.0,9.0,76,0.00,,,0.00,Wunderground PWS Mod,2014-08-29 13:55:00,
2014-08-29 10:00:00,86.2,76.9,29.97,ESE,122,3.0,7.0,74,0.00,,,0.00,Wunderground PWS Mod,2014-08-29 14:00:00,
2014-08-29 10:10:00,87.1,77.4,29.97,ESE,121,2.0,3.0,73,0.00,,,0.00,Wunderground PWS Mod,2014-08-29 14:10:00,
2014-08-29 10:15:00,86.7,77.0,29.97,ESE,121,2.0,6.0,73,0.00,,,0.00,Wunderground PWS Mod,2014-08-29 14:15:00,
2014-08-29 10:25:00,86.2,77.3,29.97,ESE,120,4.0,4.0,75,0.00,,,0.00,Wunderground PWS Mod,2014-08-29 14:25:00,
2014-08-29 10:35:00,86.0,76.7,29.97,ESE,120,2.0,5.0,74,0.00,,,0.00,Wunderground PWS Mod,2014-08-29 14:35:00,
2014-08-29 10:40:00,86.2,77.3,29.97,ESE,120,3.0,3.0,75,0.00,,,0.00,Wunderground PWS Mod,2014-08-29 14:40:00,
2014-08-29 10:45:00,86.2,76.9,29.97,ESE,120,4.0,4.0,74,0.00,,,0.00,Wunderground PWS Mod,2014-08-29 14:45:00,
2014-08-29 10:55:00,86.2,77.3,29.97,SSE,163,4.0,7.0,75,0.00,,,0.00,Wunderground PWS Mod,2014-08-29 14:55:00,
2014-08-29 11:05:00,86.6,77.3,29.97,SSE,151,2.0,2.0,74,0.00,,,0.00,Wunderground PWS Mod,2014-08-29 15:05:00,
2014-08-29 11:10:00,86.3,76.2,29.97,SE,140,2.0,2.0,72,0.00,,,0.00,Wunderground PWS Mod,2014-08-29 15:10:00,
2014-08-29 11:15:00,86.6,76.9,29.97,SE,140,2.0,2.0,73,0.00,,,0.00,Wunderground PWS Mod,2014-08-29 15:15:00,
2014-08-29 11:25:00,87.4,77.3,29.97,SE,141,1.0,1.0,72,0.00,,,0.00,Wunderground PWS Mod,2014-08-29 15:25:00,
2014-08-29 11:30:00,87.7,77.5,29.97,SE,140,0.0,4.0,72,0.00,,,0.00,Wunderground PWS Mod,2014-08-29 15:30:00,
2014-08-29 11:35:00,87.9,77.3,29.97,SE,140,1.0,3.0,71,0.00,,,0.00,Wunderground PWS Mod,2014-08-29 15:35:00,
2014-08-29 11:45:00,87.3,77.2,29.97,SE,138,2.0,6.0,72,0.00,,,0.00,Wunderground PWS Mod,2014-08-29 15:45:00,
2014-08-29 11:55:00,87.0,76.9,29.97,SE,136,3.0,6.0,72,0.00,,,0.00,Wunderground PWS Mod,2014-08-29 15:55:00,
2014-08-29 12:10:00,86.4,77.5,29.97,ESE,115,4.0,9.0,75,0.00,,,0.00,Wunderground PWS Mod,2014-08-29 16:10:00,
2014-08-29 12:15:00,85.2,77.6,29.97,ESE,115,2.0,2.0,78,0.00,,,0.00,Wunderground PWS Mod,2014-08-29 16:15:00,
2014-08-29 12:20:00,84.2,77.7,29.97,ESE,115,1.0,1.0,81,0.00,,,0.00,Wunderground PWS Mod,2014-08-29 16:20:00,
2014-08-29 12:30:00,84.1,78.4,29.96,ESE,115,1.0,1.0,83,0.00,,,0.00,Wunderground PWS Mod,2014-08-29 16:30:00,
2014-08-29 12:35:00,85.1,79.7,29.96,ESE,115,1.0,1.0,84,0.00,,,0.00,Wunderground PWS Mod,2014-08-29 16:35:00,
2014-08-29 12:40:00,86.5,80.7,29.96,ESE,114,0.0,3.0,83,0.00,,,0.00,Wunderground PWS Mod,2014-08-29 16:40:00,
2014-08-29 12:50:00,87.8,80.9,29.96,ENE,70,1.0,1.0,80,0.00,,,0.01,Wunderground PWS Mod,2014-08-29 16:50:00,
2014-08-29 12:55:00,88.4,79.9,29.96,East,101,1.0,7.0,76,0.00,,,0.01,Wunderground PWS Mod,2014-08-29 16:55:00,
2014-08-29 13:05:00,89.6,78.1,29.97,SE,124,5.0,8.0,69,0.00,,,0.01,Wunderground PWS Mod,2014-08-29 17:05:00,
2014-08-29 13:15:00,90.7,78.7,29.97,South,169,5.0,10.0,68,0.00,,,0.01,Wunderground PWS Mod,2014-08-29 17:15:00,
2014-08-29 13:20:00,90.7,78.7,29.97,ESE,118,6.0,10.0,68,0.00,,,0.01,Wunderground PWS Mod,2014-08-29 17:20:00,
2014-08-29 13:30:00,90.7,77.3,29.97,ESE,115,7.0,7.0,65,0.00,,,0.01,Wunderground PWS Mod,2014-08-29 17:30:00,
2014-08-29 13:35:00,91.1,78.2,29.97,SE,126,6.0,13.0,66,0.00,,,0.01,Wunderground PWS Mod,2014-08-29 17:35:00,
2014-08-29 13:40:00,90.7,77.8,29.97,ESE,113,5.0,6.0,66,0.00,,,0.01,Wunderground PWS Mod,2014-08-29 17:40:00,
2014-08-29 13:50:00,90.4,77.5,29.97,SSE,150,6.0,10.0,66,0.00,,,0.01,Wunderground PWS Mod,2014-08-29 17:50:00,
2014-08-29 13:55:00,90.5,78.0,29.97,SE,130,7.0,7.0,67,0.00,,,0.01,Wunderground PWS Mod,2014-08-29 17:55:00,
2014-08-29 14:05:00,91.8,78.4,29.96,SE,129,7.0,7.0,65,0.00,,,0.01,Wunderground PWS Mod,2014-08-29 18:05:00,
2014-08-29 14:10:00,91.7,77.3,29.96,ESE,108,6.0,6.0,63,0.00,,,0.01,Wunderground PWS Mod,2014-08-29 18:10:00,
2014-08-29 14:20:00,91.5,77.1,29.96,SE,124,6.0,11.0,63,0.00,,,0.01,Wunderground PWS Mod,2014-08-29 18:20:00,
2014-08-29 14:25:00,91.7,78.3,29.96,ESE,120,6.0,11.0,65,0.00,,,0.01,Wunderground PWS Mod,2014-08-29 18:25:00,
2014-08-29 14:30:00,92.1,77.7,29.95,SE,131,5.0,10.0,63,0.00,,,0.01,Wunderground PWS Mod,2014-08-29 18:30:00,
2014-08-29 14:40:00,92.3,77.4,29.95,East,98,4.0,4.0,62,0.00,,,0.01,Wunderground PWS Mod,2014-08-29 18:40:00,
2014-08-29 14:45:00,92.2,77.8,29.94,SE,129,5.0,5.0,63,0.00,,,0.01,Wunderground PWS Mod,2014-08-29 18:45:00,
2014-08-29 14:55:00,92.4,77.5,29.94,ESE,122,3.0,6.0,62,0.00,,,0.01,Wunderground PWS Mod,2014-08-29 18:55:00,
2014-08-29 15:05:00,92.5,77.6,29.95,ESE,118,5.0,11.0,62,0.00,,,0.01,Wunderground PWS Mod,2014-08-29 19:05:00,
2014-08-29 15:10:00,92.7,78.7,29.95,ESE,118,3.0,3.0,64,0.00,,,0.01,Wunderground PWS Mod,2014-08-29 19:10:00,
2014-08-29 15:15:00,93.0,78.5,29.95,ESE,120,2.0,8.0,63,0.00,,,0.01,Wunderground PWS Mod,2014-08-29 19:15:00,
2014-08-29 15:25:00,92.6,78.6,29.95,ESE,122,3.0,9.0,64,0.00,,,0.01,Wunderground PWS Mod,2014-08-29 19:25:00,
2014-08-29 15:35:00,92.2,78.3,29.94,SE,125,4.0,4.0,64,0.00,,,0.01,Wunderground PWS Mod,2014-08-29 19:35:00,
2014-08-29 15:40:00,92.5,78.1,29.94,ESE,117,4.0,7.0,63,0.00,,,0.01,Wunderground PWS Mod,2014-08-29 19:40:00,
2014-08-29 15:45:00,92.7,78.7,29.94,ESE,106,3.0,3.0,64,0.00,,,0.01,Wunderground PWS Mod,2014-08-29 19:45:00,
2014-08-29 15:55:00,92.4,77.5,29.94,ESE,105,4.0,10.0,62,0.00,,,0.01,Wunderground PWS Mod,2014-08-29 19:55:00,
2014-08-29 16:05:00,92.8,77.4,29.92,SE,124,4.0,9.0,61,0.00,,,0.01,Wunderground PWS Mod,2014-08-29 20:05:00,
2014-08-29 16:10:00,92.2,77.3,29.92,ESE,117,4.0,7.0,62,0.00,,,0.01,Wunderground PWS Mod,2014-08-29 20:10:00,
2014-08-29 16:15:00,90.8,76.5,29.92,ESE,103,4.0,7.0,63,0.00,,,0.01,Wunderground PWS Mod,2014-08-29 20:15:00,
2014-08-29 16:25:00,90.6,77.2,29.92,East,99,5.0,5.0,65,0.00,,,0.01,Wunderground PWS Mod,2014-08-29 20:25:00,
2014-08-29 16:35:00,90.6,76.7,29.92,ESE,109,6.0,6.0,64,0.00,,,0.01,Wunderground PWS Mod,2014-08-29 20:35:00,
2014-08-29 16:40:00,90.6,77.7,29.92,ESE,108,4.0,4.0,66,0.00,,,0.01,Wunderground PWS Mod,2014-08-29 20:40:00,
2014-08-29 16:45:00,90.3,76.9,29.92,ESE,110,3.0,3.0,65,0.00,,,0.01,Wunderground PWS Mod,2014-08-29 20:45:00,
2014-08-29 16:55:00,90.4,77.0,29.92,ESE,115,6.0,6.0,65,0.00,,,0.01,Wunderground PWS Mod,2014-08-29 20:55:00,
2014-08-29 17:00:00,90.6,77.2,29.92,ESE,109,5.0,5.0,65,0.00,,,0.01,Wunderground PWS Mod,2014-08-29 21:00:00,
2014-08-29 17:10:00,90.2,76.8,29.92,SE,125,4.0,12.0,65,0.00,,,0.01,Wunderground PWS Mod,2014-08-29 21:10:00,
2014-08-29 17:15:00,89.4,76.5,29.92,ESE,103,4.0,4.0,66,0.00,,,0.01,Wunderground PWS Mod,2014-08-29 21:15:00,
2014-08-29 17:25:00,89.5,76.6,29.92,ESE,108,5.0,9.0,66,0.00,,,0.01,Wunderground PWS Mod,2014-08-29 21:25:00,
2014-08-29 17:30:00,88.9,76.1,29.92,ESE,120,6.0,6.0,66,0.00,,,0.01,Wunderground PWS Mod,2014-08-29 21:30:00,
2014-08-29 17:35:00,89.1,76.7,29.92,ESE,122,5.0,9.0,67,0.00,,,0.01,Wunderground PWS Mod,2014-08-29 21:35:00,
2014-08-29 17:45:00,88.7,77.2,29.92,ESE,122,5.0,5.0,69,0.00,,,0.01,Wunderground PWS Mod,2014-08-29 21:45:00,
2014-08-29 17:55:00,88.2,76.7,29.92,ESE,121,2.0,2.0,69,0.00,,,0.01,Wunderground PWS Mod,2014-08-29 21:55:00,
2014-08-29 18:05:00,88.0,76.5,29.93,ESE,120,3.0,6.0,69,0.00,,,0.01,Wunderground PWS Mod,2014-08-29 22:05:00,
2014-08-29 18:10:00,87.7,76.3,29.93,ESE,120,4.0,10.0,69,0.00,,,0.01,Wunderground PWS Mod,2014-08-29 22:10:00,
2014-08-29 18:15:00,87.7,76.7,29.93,ESE,120,4.0,10.0,70,0.00,,,0.01,Wunderground PWS Mod,2014-08-29 22:15:00,
2014-08-29 18:25:00,87.7,76.7,29.93,ESE,120,2.0,5.0,70,0.00,,,0.01,Wunderground PWS Mod,2014-08-29 22:25:00,
2014-08-29 18:35:00,87.5,76.5,29.93,ESE,117,2.0,2.0,70,0.00,,,0.01,Wunderground PWS Mod,2014-08-29 22:35:00,
2014-08-29 18:40:00,87.5,76.5,29.93,ESE,117,1.0,2.0,70,0.00,,,0.01,Wunderground PWS Mod,2014-08-29 22:40:00,
2014-08-29 18:45:00,87.2,76.2,29.94,ESE,117,2.0,2.0,70,0.00,,,0.01,Wunderground PWS Mod,2014-08-29 22:45:00,
2014-08-29 18:55:00,86.9,76.4,29.94,ESE,117,0.0,1.0,71,0.00,,,0.01,Wunderground PWS Mod,2014-08-29 22:55:00,
2014-08-29 19:00:00,86.7,76.2,29.94,ESE,117,1.0,1.0,71,0.00,,,0.01,Wunderground PWS Mod,2014-08-29 23:00:00,
2014-08-29 19:10:00,86.4,76.3,29.94,ESE,117,1.0,1.0,72,0.00,,,0.01,Wunderground PWS Mod,2014-08-29 23:10:00,
2014-08-29 19:15:00,86.3,76.2,29.95,ESE,117,0.0,1.0,72,0.00,,,0.01,Wunderground PWS Mod,2014-08-29 23:15:00,
2014-08-29 19:25:00,86.2,76.1,29.95,ESE,117,0.0,4.0,72,0.00,,,0.01,Wunderground PWS Mod,2014-08-29 23:25:00,
2014-08-29 19:30:00,86.1,76.4,29.95,ESE,117,1.0,1.0,73,0.00,,,0.01,Wunderground PWS Mod,2014-08-29 23:30:00,
2014-08-29 19:40:00,85.8,76.5,29.95,ESE,117,0.0,1.0,74,0.00,,,0.01,Wunderground PWS Mod,2014-08-29 23:40:00,
2014-08-29 19:45:00,85.6,76.4,29.95,ESE,117,0.0,1.0,74,0.00,,,0.01,Wunderground PWS Mod,2014-08-29 23:45:00,
2014-08-29 19:55:00,85.4,76.6,29.95,ESE,117,1.0,3.0,75,0.00,,,0.01,Wunderground PWS Mod,2014-08-29 23:55:00,
2014-08-29 20:00:00,85.3,76.5,29.95,ESE,117,1.0,1.0,75,0.00,,,0.01,Wunderground PWS Mod,2014-08-30 00:00:00,
2014-08-29 20:05:00,85.2,76.4,29.95,ESE,117,1.0,1.0,75,0.00,,,0.01,Wunderground PWS Mod,2014-08-30 00:05:00,
2014-08-29 20:15:00,85.3,76.5,29.95,ESE,116,1.0,1.0,75,0.00,,,0.01,Wunderground PWS Mod,2014-08-30 00:15:00,
2014-08-29 20:20:00,85.2,76.4,29.95,ESE,116,1.0,4.0,75,0.00,,,0.01,Wunderground PWS Mod,2014-08-30 00:20:00,
2014-08-29 20:30:00,85.1,76.3,29.96,ESE,116,3.0,3.0,75,0.00,,,0.01,Wunderground PWS Mod,2014-08-30 00:30:00,
2014-08-29 20:35:00,85.2,76.4,29.96,ESE,116,2.0,2.0,75,0.00,,,0.01,Wunderground PWS Mod,2014-08-30 00:35:00,
2014-08-29 20:45:00,85.0,76.2,29.97,ESE,116,1.0,1.0,75,0.00,,,0.01,Wunderground PWS Mod,2014-08-30 00:45:00,
2014-08-29 20:55:00,84.9,76.1,29.97,ESE,116,1.0,1.0,75,0.00,,,0.01,Wunderground PWS Mod,2014-08-30 00:55:00,
2014-08-29 21:00:00,84.9,76.1,29.97,ESE,116,1.0,1.0,75,0.00,,,0.01,Wunderground PWS Mod,2014-08-30 01:00:00,
2014-08-29 21:05:00,84.9,76.1,29.97,ESE,116,0.0,3.0,75,0.00,,,0.01,Wunderground PWS Mod,2014-08-30 01:05:00,
2014-08-29 21:15:00,84.8,76.0,29.98,ESE,116,1.0,1.0,75,0.00,,,0.01,Wunderground PWS Mod,2014-08-30 01:15:00,
2014-08-29 21:25:00,84.7,75.9,29.98,ESE,116,1.0,3.0,75,0.00,,,0.01,Wunderground PWS Mod,2014-08-30 01:25:00,
2014-08-29 21:30:00,84.7,75.9,29.98,ESE,116,1.0,1.0,75,0.00,,,0.01,Wunderground PWS Mod,2014-08-30 01:30:00,
2014-08-29 21:40:00,84.7,76.3,29.98,ESE,115,2.0,2.0,76,0.00,,,0.01,Wunderground PWS Mod,2014-08-30 01:40:00,
2014-08-29 21:45:00,84.6,75.8,29.98,ESE,115,2.0,6.0,75,0.00,,,0.01,Wunderground PWS Mod,2014-08-30 01:45:00,
2014-08-29 21:55:00,84.5,75.7,29.98,ESE,115,1.0,1.0,75,0.00,,,0.01,Wunderground PWS Mod,2014-08-30 01:55:00,
2014-08-29 22:05:00,84.6,75.8,29.99,ESE,116,1.0,4.0,75,0.00,,,0.01,Wunderground PWS Mod,2014-08-30 02:05:00,
2014-08-29 22:10:00,84.8,76.0,29.99,ESE,115,1.0,1.0,75,0.00,,,0.01,Wunderground PWS Mod,2014-08-30 02:10:00,
2014-08-29 22:20:00,84.6,75.8,30.00,ESE,115,1.0,1.0,75,0.00,,,0.01,Wunderground PWS Mod,2014-08-30 02:20:00,
2014-08-29 22:25:00,84.7,75.9,30.00,ESE,115,1.0,1.0,75,0.00,,,0.01,Wunderground PWS Mod,2014-08-30 02:25:00,
2014-08-29 22:35:00,84.6,76.2,30.00,ESE,116,0.0,0.0,76,0.00,,,0.01,Wunderground PWS Mod,2014-08-30 02:35:00,
2014-08-29 22:40:00,84.5,76.1,30.00,ESE,115,0.0,0.0,76,0.00,,,0.01,Wunderground PWS Mod,2014-08-30 02:40:00,
2014-08-29 22:50:00,84.3,75.9,30.00,ESE,116,0.0,0.0,76,0.00,,,0.01,Wunderground PWS Mod,2014-08-30 02:50:00,
2014-08-29 22:55:00,84.4,76.4,30.00,ESE,115,0.0,0.0,77,0.00,,,0.01,Wunderground PWS Mod,2014-08-30 02:55:00,
2014-08-29 23:05:00,84.4,76.4,30.00,ESE,115,0.0,2.0,77,0.00,,,0.01,Wunderground PWS Mod,2014-08-30 03:05:00,